createdAt,value
2023-03-21T00:00:58.834Z,3.25
2023-03-21T00:03:26.403Z,2.50
2023-03-21T00:05:54.169Z,2.80
2023-03-21T00:08:22.310Z,2.67
2023-03-21T00:10:56.257Z,2.45
2023-03-21T00:13:23.212Z,2.78
2023-03-21T00:16:03.976Z,3.15
2023-03-21T00:18:42.526Z,2.60
2023-03-21T00:24:00.878Z,2.90
2023-03-21T00:26:27.856Z,2.60
2023-03-21T00:28:54.751Z,2.95
2023-03-21T00:31:21.515Z,2.33
2023-03-21T00:33:49.892Z,2.72
2023-03-21T00:36:17.390Z,2.63
2023-03-21T00:38:44.967Z,2.85
2023-03-21T00:41:25.831Z,2.60
2023-03-21T00:43:58.467Z,2.72
2023-03-21T00:46:39.838Z,2.80
2023-03-21T00:49:09.248Z,2.83
2023-03-21T00:51:36.391Z,3.10
2023-03-21T00:54:05.858Z,2.58
2023-03-21T00:56:33.027Z,2.47
2023-03-21T00:58:59.840Z,2.70
2023-03-21T01:01:32.038Z,2.65
2023-03-21T01:04:05.367Z,3.17
2023-03-21T01:06:39.433Z,2.88
2023-03-21T01:09:15.236Z,2.97
2023-03-21T01:11:42.579Z,2.95
2023-03-21T01:14:21.933Z,2.95
2023-03-21T01:16:53.356Z,2.90
2023-03-21T01:19:29.216Z,3.07
2023-03-21T01:21:58.109Z,2.90
2023-03-21T01:24:25.789Z,2.90
2023-03-21T01:26:52.552Z,2.70
2023-03-21T01:29:19.643Z,3.15
2023-03-21T01:31:46.496Z,2.80
2023-03-21T01:34:13.448Z,2.30
2023-03-21T01:36:41.078Z,2.83
2023-03-21T01:39:13.073Z,3.42
2023-03-21T01:41:44.177Z,3.20
2023-03-21T01:44:20.303Z,2.28
2023-03-21T01:47:03.955Z,2.60
2023-03-21T01:49:49.689Z,3.28
2023-03-21T01:52:37.802Z,2.60
2023-03-21T01:55:13.817Z,2.75
2023-03-21T01:58:08.502Z,2.88
2023-03-21T02:00:47.076Z,2.25
2023-03-21T02:03:35.754Z,2.60
2023-03-21T02:06:40.821Z,2.60
2023-03-21T02:09:20.742Z,2.45
2023-03-21T02:11:47.888Z,2.83
2023-03-21T02:14:26.995Z,2.72
2023-03-21T02:17:09.507Z,2.63
2023-03-21T02:20:08.790Z,2.53
2023-03-21T02:22:41.893Z,2.63
2023-03-21T02:25:24.535Z,2.40
2023-03-21T02:27:59.238Z,2.80
2023-03-21T02:31:04.406Z,2.40
2023-03-21T02:33:51.549Z,2.10
2023-03-21T02:36:28.585Z,3.17
2023-03-21T02:39:30.672Z,2.50
2023-03-21T02:44:44.838Z,3.17
2023-03-21T02:47:28.202Z,2.83
2023-03-21T02:50:21.828Z,3.10
2023-03-21T02:52:49.927Z,2.70
2023-03-21T02:55:23.199Z,2.92
2023-03-21T02:57:56.794Z,2.60
2023-03-21T03:00:30.651Z,2.63
2023-03-21T03:03:08.881Z,2.28
2023-03-21T03:05:52.163Z,2.63
2023-03-21T03:08:38.478Z,2.47
2023-03-21T03:11:29.817Z,2.35
2023-03-21T03:14:21.136Z,2.85
2023-03-21T03:17:20.417Z,2.33
2023-03-21T03:20:04.301Z,2.92
2023-03-21T03:22:56.115Z,2.65
2023-03-21T03:25:42.536Z,2.75
2023-03-21T03:30:57.545Z,2.28
2023-03-21T03:33:40.806Z,2.50
2023-03-21T03:36:18.705Z,2.42
2023-03-21T03:38:57.660Z,2.33
2023-03-21T03:41:29.431Z,2.67
2023-03-21T03:44:01.286Z,2.80
2023-03-21T03:46:36.493Z,2.17
2023-03-21T03:49:16.076Z,2.97
2023-03-21T03:52:12.354Z,2.80
2023-03-21T03:54:46.335Z,2.60
2023-03-21T03:57:16.706Z,2.25
2023-03-21T03:59:45.746Z,2.28
2023-03-21T04:02:25.564Z,2.65
2023-03-21T04:04:53.668Z,3.35
2023-03-21T04:07:22.263Z,2.58
2023-03-21T04:09:51.889Z,2.75
2023-03-21T04:12:20.432Z,2.70
2023-03-21T04:15:10.743Z,2.60
2023-03-21T04:17:40.776Z,1.88
2023-03-21T04:20:14.991Z,2.40
2023-03-21T04:22:43.579Z,2.40
2023-03-21T04:25:11.085Z,2.58
2023-03-21T04:27:38.146Z,2.17
2023-03-21T04:30:43.364Z,2.35
2023-03-21T04:33:16.285Z,2.50
2023-03-21T04:35:50.792Z,2.63
2023-03-21T04:38:18.535Z,2.72
2023-03-21T04:40:45.718Z,2.05
2023-03-21T04:43:12.547Z,2.75
2023-03-21T04:45:40.557Z,2.30
2023-03-21T04:48:08.618Z,2.72
2023-03-21T04:50:36.200Z,2.50
2023-03-21T04:53:03.649Z,2.33
2023-03-21T04:55:31.789Z,2.25
2023-03-21T04:57:58.796Z,2.50
2023-03-21T05:00:25.811Z,2.53
2023-03-21T05:02:52.714Z,2.53
2023-03-21T05:05:21.302Z,2.38
2023-03-21T05:07:48.049Z,2.55
2023-03-21T05:10:14.777Z,2.20
2023-03-21T05:12:41.817Z,1.88
2023-03-21T05:15:09.626Z,2.40
2023-03-21T05:17:37.272Z,2.63
2023-03-21T05:20:04.828Z,2.45
2023-03-21T05:22:40.805Z,2.67
2023-03-21T05:25:13.169Z,2.30
2023-03-21T05:28:05.230Z,2.80
2023-03-21T05:30:32.373Z,2.17
2023-03-21T05:33:00.882Z,2.42
2023-03-21T05:35:27.856Z,2.35
2023-03-21T05:37:57.349Z,2.30
2023-03-21T05:40:25.794Z,2.58
2023-03-21T05:42:56.510Z,2.22
2023-03-21T05:45:24.825Z,2.25
2023-03-21T05:47:51.842Z,1.95
2023-03-21T05:50:22.093Z,2.55
2023-03-21T05:53:02.485Z,2.60
2023-03-21T05:55:29.330Z,2.88
2023-03-21T05:57:56.960Z,2.45
2023-03-21T06:00:30.136Z,3.05
2023-03-21T06:03:13.192Z,2.92
2023-03-21T06:05:53.807Z,2.80
2023-03-21T06:08:24.438Z,2.83
2023-03-21T06:10:51.251Z,3.00
2023-03-21T06:13:18.330Z,2.40
2023-03-21T06:15:45.802Z,2.50
2023-03-21T06:18:17.324Z,2.25
2023-03-21T06:21:10.659Z,1.73
2023-03-21T06:23:39.800Z,2.78
2023-03-21T06:26:06.902Z,2.92
2023-03-21T06:28:34.196Z,2.33
2023-03-21T06:31:00.994Z,2.75
2023-03-21T06:33:30.764Z,2.60
2023-03-21T06:35:58.887Z,2.53
2023-03-21T06:38:26.219Z,3.13
2023-03-21T06:40:53.925Z,3.10
2023-03-21T06:43:23.799Z,2.63
2023-03-21T06:45:50.867Z,2.55
2023-03-21T06:48:17.731Z,2.88
2023-03-21T06:53:20.608Z,2.85
2023-03-21T06:56:09.342Z,3.38
2023-03-21T06:58:36.608Z,2.97
2023-03-21T07:01:05.044Z,3.25
2023-03-21T07:03:35.773Z,3.08
2023-03-21T07:06:08.623Z,3.13
2023-03-21T07:08:35.548Z,2.28
2023-03-21T07:11:02.825Z,2.83
2023-03-21T07:13:30.374Z,2.72
2023-03-21T07:16:03.455Z,2.67
2023-03-21T07:18:31.001Z,2.58
2023-03-21T07:20:58.411Z,3.33
2023-03-21T07:23:27.020Z,2.88
2023-03-21T07:25:55.248Z,2.92
2023-03-21T07:28:23.723Z,2.58
2023-03-21T07:30:56.608Z,3.05
2023-03-21T07:33:24.491Z,2.63
2023-03-21T07:35:54.144Z,2.75
2023-03-21T07:38:21.552Z,3.10
2023-03-21T07:40:49.528Z,2.85
2023-03-21T07:45:56.002Z,3.35
2023-03-21T07:48:22.803Z,2.97
2023-03-21T07:50:50.353Z,3.08
2023-03-21T07:53:17.314Z,3.28
2023-03-21T07:55:44.035Z,2.72
2023-03-21T07:58:11.075Z,2.67
2023-03-21T08:00:38.434Z,2.85
2023-03-21T08:03:05.202Z,2.55
2023-03-21T08:05:37.164Z,3.20
2023-03-21T08:08:05.964Z,2.42
2023-03-21T08:10:32.873Z,2.83
2023-03-21T08:12:59.692Z,3.13
2023-03-21T08:15:26.695Z,2.88
2023-03-21T08:17:53.519Z,2.80
2023-03-21T08:20:21.949Z,2.55
2023-03-21T08:22:49.625Z,2.30
2023-03-21T08:25:18.357Z,2.22
2023-03-21T08:27:46.649Z,2.58
2023-03-21T08:30:17.453Z,1.92
2023-03-21T08:32:44.631Z,2.05
2023-03-21T08:35:13.225Z,2.70
2023-03-21T08:37:40.923Z,1.90
2023-03-21T08:40:11.403Z,1.63
2023-03-21T08:42:39.119Z,1.98
2023-03-21T08:45:06.724Z,1.50
2023-03-21T08:47:33.752Z,1.58
2023-03-21T08:50:00.416Z,1.90
2023-03-21T08:52:27.796Z,1.90
2023-03-21T08:54:54.722Z,2.30
2023-03-21T08:57:21.770Z,1.67
2023-03-21T08:59:48.663Z,1.55
2023-03-21T09:02:17.301Z,1.67
2023-03-21T09:04:44.795Z,1.73
2023-03-21T09:07:14.279Z,2.17
2023-03-21T09:09:42.177Z,2.10
2023-03-21T09:12:09.158Z,1.52
2023-03-21T09:14:35.901Z,1.85
2023-03-21T09:17:02.618Z,1.48
2023-03-21T09:19:30.038Z,1.60
2023-03-21T09:21:57.819Z,1.73
2023-03-21T09:24:24.764Z,1.33
2023-03-21T09:26:51.594Z,1.58
2023-03-21T09:29:20.892Z,1.73
2023-03-21T09:31:48.217Z,1.42
2023-03-21T09:34:17.772Z,1.40
2023-03-21T09:36:44.691Z,1.30
2023-03-21T09:39:12.691Z,1.50
2023-03-21T09:42:15.979Z,1.25
2023-03-21T09:44:56.035Z,1.45
2023-03-21T09:47:29.539Z,1.42
2023-03-21T09:50:13.800Z,1.30
2023-03-21T09:52:50.643Z,1.05
2023-03-21T09:55:22.416Z,1.27
2023-03-21T09:57:59.475Z,1.23
2023-03-21T10:00:35.089Z,1.25
2023-03-21T10:03:06.748Z,1.25
2023-03-21T10:05:35.712Z,1.35
2023-03-21T10:08:19.474Z,1.60
2023-03-21T10:10:56.479Z,1.30
2023-03-21T10:13:27.683Z,1.40
2023-03-21T10:16:00.810Z,1.80
2023-03-21T10:18:30.800Z,1.42
2023-03-21T10:20:58.120Z,1.38
2023-03-21T10:23:28.597Z,1.40
2023-03-21T10:26:01.995Z,1.33
2023-03-21T10:28:46.097Z,1.17
2023-03-21T10:31:21.510Z,1.33
2023-03-21T10:33:50.614Z,1.65
2023-03-21T10:36:22.587Z,1.33
2023-03-21T10:38:54.044Z,1.50
2023-03-21T10:41:21.221Z,1.40
2023-03-21T10:44:16.812Z,1.58
2023-03-21T10:46:58.742Z,1.20
2023-03-21T10:49:26.678Z,1.33
2023-03-21T10:51:59.409Z,1.45
2023-03-21T10:54:29.736Z,1.35
2023-03-21T10:57:04.924Z,1.00
2023-03-21T10:59:47.173Z,1.33
2023-03-21T11:02:24.362Z,1.35
2023-03-21T11:04:53.206Z,1.40
2023-03-21T11:07:20.548Z,1.27
2023-03-21T11:09:57.366Z,1.00
2023-03-21T11:12:37.705Z,1.05
2023-03-21T11:15:46.557Z,1.33
2023-03-21T11:18:27.553Z,1.08
2023-03-21T11:20:56.788Z,1.20
2023-03-21T11:23:28.693Z,1.00
2023-03-21T11:25:55.958Z,1.13
2023-03-21T11:28:25.559Z,1.27
2023-03-21T11:30:55.388Z,1.17
2023-03-21T11:33:27.715Z,1.10
2023-03-21T11:36:18.920Z,0.80
2023-03-21T11:38:50.764Z,1.40
2023-03-21T11:41:31.361Z,0.82
2023-03-21T11:43:59.441Z,1.25
2023-03-21T11:46:29.349Z,1.00
2023-03-21T11:48:57.678Z,1.00
2023-03-21T11:51:36.975Z,1.25
2023-03-21T11:54:19.682Z,1.02
2023-03-21T11:56:56.889Z,1.55
2023-03-21T11:59:41.333Z,1.67
2023-03-21T12:02:55.111Z,1.42
2023-03-21T12:05:35.480Z,1.63
2023-03-21T12:08:36.479Z,1.30
2023-03-21T12:11:34.558Z,1.53
2023-03-21T12:14:23.868Z,1.00
2023-03-21T12:17:13.589Z,1.23
2023-03-21T12:20:14.083Z,1.33
2023-03-21T12:23:01.690Z,1.00
2023-03-21T12:25:56.568Z,1.40
2023-03-21T12:29:04.190Z,1.30
2023-03-21T12:32:05.054Z,1.20
2023-03-21T12:35:05.265Z,1.15
2023-03-21T12:37:53.497Z,0.95
2023-03-21T12:40:33.929Z,1.27
2023-03-21T12:43:42.044Z,0.93
2023-03-21T12:46:24.120Z,1.10
2023-03-21T12:49:09.340Z,1.05
2023-03-21T12:51:44.096Z,1.10
2023-03-21T12:54:25.913Z,1.05
2023-03-21T12:57:08.861Z,0.90
2023-03-21T12:59:56.239Z,1.00
2023-03-21T13:02:34.801Z,1.08
2023-03-21T13:05:27.554Z,0.93
2023-03-21T13:08:00.158Z,1.00
2023-03-21T13:10:27.531Z,0.80
2023-03-21T13:13:33.894Z,1.10
2023-03-21T13:16:00.659Z,0.95
2023-03-21T13:18:42.687Z,0.77
2023-03-21T13:21:25.877Z,1.25
2023-03-21T13:24:02.047Z,1.05
2023-03-21T13:26:42.146Z,0.82
2023-03-21T13:29:32.138Z,0.98
2023-03-21T13:32:17.078Z,1.00
2023-03-21T13:34:44.588Z,0.98
2023-03-21T13:37:17.544Z,0.88
2023-03-21T13:39:47.107Z,0.93
2023-03-21T13:42:31.740Z,1.10
2023-03-21T13:45:02.324Z,0.90
2023-03-21T13:47:39.384Z,0.90
2023-03-21T13:50:49.660Z,0.80
2023-03-21T13:53:16.292Z,0.55
2023-03-21T13:55:46.571Z,1.00
2023-03-21T13:58:33.423Z,0.68
2023-03-21T14:01:21.900Z,0.75
2023-03-21T14:03:49.637Z,1.02
2023-03-21T14:06:18.374Z,0.70
2023-03-21T14:08:48.916Z,1.10
2023-03-21T14:11:20.489Z,0.60
2023-03-21T14:13:51.514Z,0.70
2023-03-21T14:16:20.314Z,0.73
2023-03-21T14:18:56.060Z,0.95
2023-03-21T14:21:29.585Z,0.80
2023-03-21T14:24:01.967Z,0.80
2023-03-21T14:26:33.712Z,0.75
2023-03-21T14:29:09.271Z,0.90
2023-03-21T14:31:39.742Z,0.77
2023-03-21T14:34:06.975Z,1.00
2023-03-21T14:36:43.120Z,1.10
2023-03-21T14:39:15.927Z,1.10
2023-03-21T14:41:52.079Z,0.77
2023-03-21T14:44:26.049Z,0.70
2023-03-21T14:47:04.751Z,0.50
2023-03-21T14:49:34.706Z,0.60
2023-03-21T14:52:07.785Z,0.68
2023-03-21T14:54:34.577Z,0.70
2023-03-21T14:57:10.406Z,1.05
2023-03-21T14:59:39.101Z,0.60
2023-03-21T15:02:17.048Z,0.98
2023-03-21T15:04:46.717Z,0.82
2023-03-21T15:07:28.824Z,0.60
2023-03-21T15:09:58.536Z,0.68
2023-03-21T15:12:25.433Z,0.50
2023-03-21T15:14:52.625Z,0.73
2023-03-21T15:17:20.230Z,0.70
2023-03-21T15:19:47.059Z,0.70
2023-03-21T15:22:38.178Z,0.77
2023-03-21T15:25:08.940Z,0.60
2023-03-21T15:27:41.118Z,0.77
2023-03-21T15:30:18.152Z,0.80
2023-03-21T15:32:47.326Z,0.80
2023-03-21T15:35:19.817Z,0.63
2023-03-21T15:37:54.295Z,0.90
2023-03-21T15:40:31.092Z,0.70
2023-03-21T15:43:18.799Z,0.40
2023-03-21T15:45:56.820Z,0.80
2023-03-21T15:48:28.271Z,0.60
2023-03-21T15:51:03.561Z,0.60
2023-03-21T15:53:34.306Z,0.60
2023-03-21T15:56:04.212Z,0.70
2023-03-21T15:58:42.170Z,0.60
2023-03-21T16:01:18.519Z,0.80
2023-03-21T16:03:47.927Z,0.57
2023-03-21T16:06:14.602Z,0.73
2023-03-21T16:08:47.292Z,0.75
2023-03-21T16:11:23.388Z,0.75
2023-03-21T16:13:51.543Z,0.80
2023-03-21T16:16:27.166Z,0.73
2023-03-21T16:18:55.758Z,0.80
2023-03-21T16:21:26.537Z,0.98
2023-03-21T16:23:54.027Z,1.13
2023-03-21T16:26:23.462Z,0.88
2023-03-21T16:28:50.840Z,1.00
2023-03-21T16:31:26.021Z,0.90
2023-03-21T16:33:53.076Z,1.08
2023-03-21T16:36:40.979Z,1.05
2023-03-21T16:39:19.783Z,0.90
2023-03-21T16:41:47.415Z,0.65
2023-03-21T16:44:14.382Z,0.60
2023-03-21T16:46:41.374Z,0.90
2023-03-21T16:49:22.295Z,1.00
2023-03-21T16:51:49.260Z,0.77
2023-03-21T16:54:16.214Z,0.82
2023-03-21T16:56:46.673Z,0.50
2023-03-21T16:59:14.553Z,0.60
2023-03-21T17:01:42.425Z,0.73
2023-03-21T17:04:10.547Z,0.70
2023-03-21T17:06:44.458Z,0.55
2023-03-21T17:09:13.413Z,0.68
2023-03-21T17:11:41.551Z,0.93
2023-03-21T17:14:09.914Z,0.57
2023-03-21T17:16:40.093Z,0.70
2023-03-21T17:19:12.744Z,1.00
2023-03-21T17:21:39.529Z,0.80
2023-03-21T17:24:06.517Z,1.00
2023-03-21T17:26:33.242Z,1.10
2023-03-21T17:29:00.839Z,0.93
2023-03-21T17:31:31.004Z,1.23
2023-03-21T17:33:57.719Z,1.25
2023-03-21T17:36:34.110Z,1.02
2023-03-21T17:39:01.277Z,0.85
2023-03-21T17:41:28.584Z,0.95
2023-03-21T17:43:55.978Z,1.00
2023-03-21T17:46:29.133Z,0.90
2023-03-21T17:48:56.727Z,1.70
2023-03-21T17:51:26.143Z,1.60
2023-03-21T17:53:53.168Z,1.50
2023-03-21T17:56:26.997Z,1.75
2023-03-21T17:58:54.553Z,1.77
2023-03-21T18:01:23.115Z,1.85
2023-03-21T18:03:51.034Z,1.70
2023-03-21T18:06:20.676Z,1.85
2023-03-21T18:08:49.361Z,1.40
2023-03-21T18:11:17.564Z,1.33
2023-03-21T18:13:44.805Z,1.30
2023-03-21T18:16:17.675Z,1.80
2023-03-21T18:18:46.392Z,1.50
2023-03-21T18:21:19.480Z,1.70
2023-03-21T18:23:50.508Z,1.83
2023-03-21T18:26:22.894Z,2.22
2023-03-21T18:29:43.875Z,3.50
2023-03-21T18:31:38.156Z,3.22
2023-03-21T18:34:05.167Z,3.08
2023-03-21T18:36:32.146Z,3.92
2023-03-21T18:38:58.947Z,3.78
2023-03-21T18:41:25.964Z,4.10
2023-03-21T18:44:01.140Z,4.15
2023-03-21T18:46:33.172Z,4.30
2023-03-21T18:49:13.120Z,3.95
2023-03-21T18:51:47.848Z,2.30
2023-03-21T18:54:14.843Z,3.10
2023-03-21T18:59:34.611Z,3.45
2023-03-21T19:02:02.083Z,3.10
2023-03-21T19:04:30.518Z,3.63
2023-03-21T19:07:01.168Z,4.60
2023-03-21T19:09:31.781Z,7.75
2023-03-21T19:12:00.607Z,5.78
2023-03-21T19:14:28.109Z,4.18
2023-03-21T19:17:43.525Z,4.45
2023-03-21T19:19:43.499Z,4.45
2023-03-21T19:22:10.596Z,4.05
2023-03-21T19:24:37.464Z,3.63
2023-03-21T19:27:04.306Z,3.92
2023-03-21T19:29:31.176Z,3.80
2023-03-21T19:31:58.415Z,3.63
2023-03-21T19:34:26.484Z,4.18
2023-03-21T19:36:53.595Z,3.83
2023-03-21T19:39:22.070Z,4.78
2023-03-21T19:41:50.621Z,4.88
2023-03-21T19:44:19.100Z,4.30
2023-03-21T19:46:45.975Z,4.50
2023-03-21T19:49:12.954Z,4.80
2023-03-21T19:51:39.690Z,4.03
2023-03-21T19:54:07.469Z,4.68
2023-03-21T19:56:34.770Z,4.50
2023-03-21T19:59:02.955Z,4.65
2023-03-21T20:01:32.299Z,4.65
2023-03-21T20:03:59.442Z,4.65
2023-03-21T20:06:27.199Z,5.30
2023-03-21T20:11:41.515Z,5.18
2023-03-21T20:14:08.593Z,4.93
2023-03-21T20:16:36.833Z,4.93
2023-03-21T20:19:10.031Z,4.38
2023-03-21T20:21:48.169Z,4.57
2023-03-21T20:24:17.662Z,4.68
2023-03-21T20:26:45.883Z,4.05
2023-03-21T20:30:07.112Z,4.50
2023-03-21T20:32:00.229Z,3.60
2023-03-21T20:34:28.384Z,4.88
2023-03-21T20:36:55.561Z,3.95
2023-03-21T20:39:22.473Z,3.90
2023-03-21T20:41:49.443Z,4.30
2023-03-21T20:44:48.103Z,4.28
2023-03-21T20:47:05.486Z,4.05
2023-03-21T20:49:32.360Z,3.25
2023-03-21T20:54:47.383Z,3.60
2023-03-21T20:57:14.144Z,3.55
2023-03-21T20:59:41.299Z,3.70
2023-03-21T21:02:10.439Z,3.85
2023-03-21T21:05:23.702Z,3.72
2023-03-21T21:07:27.443Z,3.72
2023-03-21T21:09:54.486Z,3.92
2023-03-21T21:12:27.406Z,4.15
2023-03-21T21:14:57.648Z,4.22
2023-03-21T21:17:40.667Z,4.30
2023-03-21T21:20:21.489Z,4.90
2023-03-21T21:22:59.503Z,5.18
2023-03-21T21:25:27.333Z,5.07
2023-03-21T21:27:54.358Z,4.75
2023-03-21T21:30:21.740Z,4.78
2023-03-21T21:32:49.444Z,4.93
2023-03-21T21:35:17.834Z,4.68
2023-03-21T21:37:44.657Z,4.20
2023-03-21T21:40:20.222Z,4.88
2023-03-21T21:42:47.210Z,5.03
2023-03-21T21:45:14.457Z,5.22
2023-03-21T21:47:43.794Z,4.10
2023-03-21T21:50:10.886Z,4.20
2023-03-21T21:52:37.651Z,4.40
2023-03-21T21:55:06.324Z,4.05
2023-03-21T21:57:34.433Z,4.18
2023-03-21T22:00:06.057Z,3.60
2023-03-21T22:02:38.978Z,3.17
2023-03-21T22:05:06.798Z,2.88
2023-03-21T22:07:33.577Z,3.22
2023-03-21T22:10:00.430Z,2.90
2023-03-21T22:12:27.169Z,3.03
2023-03-21T22:14:54.084Z,3.47
2023-03-21T22:17:20.902Z,2.40
2023-03-21T22:20:04.270Z,2.70
2023-03-21T22:22:31.973Z,3.08
2023-03-21T22:24:58.682Z,3.50
2023-03-21T22:27:26.534Z,3.13
2023-03-21T22:29:53.282Z,2.60
2023-03-21T22:32:20.763Z,2.90
2023-03-21T22:34:47.464Z,2.97
2023-03-21T22:37:14.192Z,2.78
2023-03-21T22:39:40.847Z,2.75
2023-03-21T22:42:07.878Z,3.20
2023-03-21T22:44:34.833Z,2.40
2023-03-21T22:47:07.693Z,2.38
2023-03-21T22:49:35.144Z,2.80
2023-03-21T22:52:03.263Z,3.25
2023-03-21T22:54:30.672Z,2.85
2023-03-21T22:56:57.392Z,3.95
2023-03-21T22:59:24.723Z,3.58
2023-03-21T23:01:51.788Z,3.75
2023-03-21T23:04:18.832Z,3.78
2023-03-21T23:06:46.196Z,3.70
2023-03-21T23:09:13.392Z,4.00
2023-03-21T23:11:40.352Z,3.72
2023-03-21T23:14:08.908Z,3.60
2023-03-21T23:16:38.314Z,3.33
2023-03-21T23:19:05.797Z,3.50
2023-03-21T23:21:34.519Z,4.20
2023-03-21T23:24:01.450Z,3.53
2023-03-21T23:26:28.917Z,3.97
2023-03-21T23:28:56.412Z,3.72
2023-03-21T23:31:26.496Z,3.17
2023-03-21T23:33:54.541Z,3.15
2023-03-21T23:36:22.672Z,3.15
2023-03-21T23:38:50.465Z,3.33
2023-03-21T23:41:20.600Z,2.88
2023-03-21T23:43:47.862Z,2.83
2023-03-21T23:46:16.930Z,2.67
2023-03-21T23:48:45.235Z,2.70
2023-03-21T23:51:13.878Z,3.42
2023-03-21T23:53:40.848Z,2.83
2023-03-21T23:56:18.889Z,2.90
2023-03-21T23:58:46.933Z,2.70
